createdAt,value
2023-05-04T00:01:24.898Z,6.50
2023-05-04T00:03:52.345Z,6.40
2023-05-04T00:06:19.931Z,6.30
2023-05-04T00:08:47.011Z,6.30
2023-05-04T00:11:14.071Z,6.30
2023-05-04T00:13:41.119Z,6.30
2023-05-04T00:16:10.659Z,6.30
2023-05-04T00:18:39.285Z,6.20
2023-05-04T00:21:06.536Z,6.20
2023-05-04T00:23:33.676Z,6.20
2023-05-04T00:26:01.118Z,6.20
2023-05-04T00:28:28.316Z,6.20
2023-05-04T00:30:55.879Z,6.20
2023-05-04T00:33:23.058Z,6.10
2023-05-04T00:35:50.361Z,6.20
2023-05-04T00:38:19.511Z,6.10
2023-05-04T00:40:46.582Z,6.10
2023-05-04T00:43:13.636Z,6.10
2023-05-04T00:45:42.321Z,6.10
2023-05-04T00:48:09.504Z,6.10
2023-05-04T00:50:36.715Z,6.10
2023-05-04T00:53:09.770Z,6.10
2023-05-04T00:55:43.435Z,6.10
2023-05-04T00:58:10.593Z,6.00
2023-05-04T01:00:37.874Z,6.00
2023-05-04T01:03:05.152Z,5.90
2023-05-04T01:05:38.658Z,5.80
2023-05-04T01:08:14.062Z,5.70
2023-05-04T01:10:54.254Z,5.80
2023-05-04T01:13:22.675Z,5.80
2023-05-04T01:15:50.967Z,5.70
2023-05-04T01:18:17.996Z,5.60
2023-05-04T01:20:45.084Z,5.60
2023-05-04T01:23:12.411Z,5.60
2023-05-04T01:26:19.370Z,5.60
2023-05-04T01:29:01.071Z,5.70
2023-05-04T01:31:28.808Z,5.70
2023-05-04T01:33:57.234Z,5.60
2023-05-04T01:36:24.607Z,5.60
2023-05-04T01:38:57.803Z,5.60
2023-05-04T01:41:25.190Z,5.60
2023-05-04T01:43:52.299Z,5.60
2023-05-04T01:46:19.471Z,5.60
2023-05-04T01:48:46.587Z,5.60
2023-05-04T01:51:13.704Z,5.50
2023-05-04T01:53:41.043Z,5.50
2023-05-04T01:56:08.267Z,5.50
2023-05-04T01:58:35.442Z,5.40
2023-05-04T02:01:02.545Z,5.40
2023-05-04T02:03:29.721Z,5.40
2023-05-04T02:05:57.264Z,5.30
2023-05-04T02:08:24.386Z,5.20
2023-05-04T02:10:51.475Z,5.20
2023-05-04T02:13:19.242Z,5.10
2023-05-04T02:15:46.434Z,5.10
2023-05-04T02:18:13.653Z,5.10
2023-05-04T02:20:40.836Z,5.10
2023-05-04T02:23:07.946Z,5.10
2023-05-04T02:25:35.041Z,5.10
2023-05-04T02:28:02.107Z,5.10
2023-05-04T02:30:29.266Z,5.00
2023-05-04T02:32:56.356Z,4.90
2023-05-04T02:35:23.590Z,4.90
2023-05-04T02:37:50.989Z,4.90
2023-05-04T02:40:18.242Z,4.80
2023-05-04T02:42:45.486Z,4.90
2023-05-04T02:45:12.931Z,5.00
2023-05-04T02:47:40.008Z,4.90
2023-05-04T02:50:07.809Z,4.90
2023-05-04T02:52:35.162Z,4.90
2023-05-04T02:55:05.591Z,4.80
2023-05-04T02:57:32.776Z,4.90
2023-05-04T02:59:59.850Z,4.90
2023-05-04T03:02:27.026Z,4.90
2023-05-04T03:04:54.198Z,4.90
2023-05-04T03:07:21.334Z,4.90
2023-05-04T03:09:48.456Z,4.90
2023-05-04T03:12:15.872Z,4.90
2023-05-04T03:14:42.995Z,4.90
2023-05-04T03:17:10.038Z,4.90
2023-05-04T03:19:37.230Z,4.90
2023-05-04T03:22:04.303Z,4.80
2023-05-04T03:24:31.362Z,4.90
2023-05-04T03:26:58.468Z,4.80
2023-05-04T03:29:26.665Z,4.80
2023-05-04T03:31:53.748Z,4.80
2023-05-04T03:34:23.581Z,4.80
2023-05-04T03:36:50.704Z,4.80
2023-05-04T03:39:18.110Z,4.80
2023-05-04T03:41:45.528Z,4.70
2023-05-04T03:44:12.637Z,4.80
2023-05-04T03:46:39.735Z,4.80
2023-05-04T03:49:06.857Z,4.90
2023-05-04T03:51:33.967Z,5.00
2023-05-04T03:54:02.017Z,5.00
2023-05-04T03:56:29.115Z,5.10
2023-05-04T03:58:56.270Z,5.10
2023-05-04T04:01:23.400Z,5.20
2023-05-04T04:03:50.549Z,5.30
2023-05-04T04:06:17.774Z,5.30
2023-05-04T04:08:44.882Z,5.40
2023-05-04T04:11:11.911Z,5.50
2023-05-04T04:13:39.062Z,5.60
2023-05-04T04:16:06.895Z,5.60
2023-05-04T04:18:34.081Z,5.70
2023-05-04T04:21:01.126Z,5.70
2023-05-04T04:23:28.249Z,5.70
2023-05-04T04:25:55.286Z,5.80
2023-05-04T04:28:22.429Z,5.90
2023-05-04T04:30:49.561Z,6.00
2023-05-04T04:33:17.214Z,6.10
2023-05-04T04:35:44.520Z,6.30
2023-05-04T04:38:11.717Z,6.40
2023-05-04T04:40:38.868Z,6.50
2023-05-04T04:43:05.945Z,6.60
2023-05-04T04:45:33.892Z,6.70
2023-05-04T04:48:02.251Z,6.80
2023-05-04T04:50:29.799Z,6.90
2023-05-04T04:52:57.053Z,7.00
2023-05-04T04:55:26.158Z,7.00
2023-05-04T04:57:53.243Z,7.00
2023-05-04T05:00:20.509Z,7.10
2023-05-04T05:02:47.689Z,7.20
2023-05-04T05:05:14.907Z,7.30
2023-05-04T05:07:42.334Z,7.40
2023-05-04T05:10:09.891Z,7.50
2023-05-04T05:12:36.987Z,7.50
2023-05-04T05:15:04.769Z,7.60
2023-05-04T05:17:31.853Z,7.80
2023-05-04T05:19:58.917Z,7.90
2023-05-04T05:22:26.038Z,8.00
2023-05-04T05:24:53.126Z,7.90
2023-05-04T05:27:20.253Z,7.90
2023-05-04T05:29:47.501Z,8.10
2023-05-04T05:32:14.563Z,8.40
2023-05-04T05:34:42.965Z,8.40
2023-05-04T05:37:10.246Z,8.40
2023-05-04T05:39:37.410Z,8.60
2023-05-04T05:42:04.602Z,8.80
2023-05-04T05:44:31.634Z,9.00
2023-05-04T05:46:58.727Z,9.00
2023-05-04T05:49:25.794Z,9.10
2023-05-04T05:51:52.842Z,9.20
2023-05-04T05:54:22.039Z,9.20
2023-05-04T05:56:49.430Z,9.40
2023-05-04T05:59:16.554Z,9.70
2023-05-04T06:01:43.777Z,9.90
2023-05-04T06:04:10.905Z,10.00
2023-05-04T06:06:38.651Z,10.10
2023-05-04T06:09:06.102Z,10.10
2023-05-04T06:11:33.230Z,10.40
2023-05-04T06:14:00.397Z,10.60
2023-05-04T06:16:27.611Z,10.70
2023-05-04T06:18:54.713Z,11.20
2023-05-04T06:21:21.946Z,11.60
2023-05-04T06:23:49.154Z,11.60
2023-05-04T06:26:16.228Z,11.60
2023-05-04T06:28:43.369Z,11.70
2023-05-04T06:31:10.521Z,11.60
2023-05-04T06:33:38.588Z,11.40
2023-05-04T06:36:06.334Z,11.40
2023-05-04T06:38:34.714Z,11.50
2023-05-04T06:41:03.932Z,11.60
2023-05-04T06:43:32.268Z,11.50
2023-05-04T06:46:04.087Z,11.60
2023-05-04T06:48:31.858Z,11.80
2023-05-04T06:51:00.660Z,12.00
2023-05-04T06:53:28.722Z,12.00
2023-05-04T06:55:55.953Z,12.30
2023-05-04T06:58:23.312Z,12.50
2023-05-04T07:00:51.456Z,12.50
2023-05-04T07:03:18.659Z,12.60
2023-05-04T07:05:45.829Z,12.30
2023-05-04T07:08:13.172Z,12.50
2023-05-04T07:10:40.258Z,12.80
2023-05-04T07:13:08.181Z,12.90
2023-05-04T07:15:35.567Z,13.10
2023-05-04T07:18:02.799Z,13.30
2023-05-04T07:20:29.944Z,13.40
2023-05-04T07:22:57.470Z,13.40
2023-05-04T07:25:25.959Z,13.30
2023-05-04T07:27:53.845Z,13.60
2023-05-04T07:30:21.492Z,13.40
2023-05-04T07:32:48.843Z,13.40
2023-05-04T07:35:16.203Z,13.60
2023-05-04T07:37:43.301Z,13.90
2023-05-04T07:40:11.791Z,13.90
2023-05-04T07:42:39.201Z,14.20
2023-05-04T07:45:08.567Z,14.50
2023-05-04T07:47:35.960Z,14.50
2023-05-04T07:50:04.489Z,14.40
2023-05-04T07:52:31.805Z,14.20
2023-05-04T07:54:58.888Z,14.30
2023-05-04T07:57:25.989Z,14.40
2023-05-04T07:59:56.485Z,14.30
2023-05-04T08:02:23.905Z,14.60
2023-05-04T08:04:51.049Z,14.90
2023-05-04T08:07:19.624Z,14.80
2023-05-04T08:09:46.761Z,14.90
2023-05-04T08:12:14.095Z,14.80
2023-05-04T08:14:41.335Z,14.80
2023-05-04T08:17:08.357Z,15.20
2023-05-04T08:19:35.438Z,15.50
2023-05-04T08:22:02.738Z,15.40
2023-05-04T08:24:30.828Z,15.30
2023-05-04T08:27:07.244Z,15.20
2023-05-04T08:29:37.653Z,15.30
2023-05-04T08:32:06.124Z,15.20
2023-05-04T08:34:33.318Z,15.00
2023-05-04T08:37:00.618Z,15.30
2023-05-04T08:39:27.758Z,15.40
2023-05-04T08:41:54.877Z,15.60
2023-05-04T08:44:22.609Z,15.60
2023-05-04T08:46:53.872Z,15.40
2023-05-04T08:49:22.108Z,15.50
2023-05-04T08:51:52.941Z,15.60
2023-05-04T08:54:21.190Z,15.90
2023-05-04T08:56:48.737Z,16.10
2023-05-04T08:59:23.759Z,16.20
2023-05-04T09:01:56.663Z,16.00
2023-05-04T09:04:24.234Z,16.00
2023-05-04T09:06:52.599Z,15.90
2023-05-04T09:09:23.319Z,15.80
2023-05-04T09:11:50.386Z,15.80
2023-05-04T09:14:17.489Z,16.30
2023-05-04T09:16:44.874Z,16.60
2023-05-04T09:19:21.551Z,16.10
2023-05-04T09:21:50.120Z,16.00
2023-05-04T09:24:27.803Z,16.00
2023-05-04T09:26:55.115Z,16.10
2023-05-04T09:29:25.769Z,16.30
2023-05-04T09:31:53.112Z,16.20
2023-05-04T09:34:21.584Z,16.30
2023-05-04T09:37:02.498Z,16.20
2023-05-04T09:39:33.576Z,16.40
2023-05-04T09:42:01.278Z,16.60
2023-05-04T09:44:29.881Z,16.80
2023-05-04T09:46:59.781Z,16.50
2023-05-04T09:49:37.197Z,16.60
2023-05-04T09:52:06.058Z,16.60
2023-05-04T09:54:36.496Z,16.40
2023-05-04T09:57:16.383Z,16.50
2023-05-04T09:59:43.711Z,16.60
2023-05-04T10:02:22.589Z,16.80
2023-05-04T10:04:57.631Z,17.10
2023-05-04T10:07:26.250Z,17.40
2023-05-04T10:09:53.963Z,17.30
2023-05-04T10:12:21.117Z,17.20
2023-05-04T10:14:48.303Z,17.20
2023-05-04T10:17:37.148Z,17.50
2023-05-04T10:20:10.095Z,17.40
2023-05-04T10:23:03.707Z,17.60
2023-05-04T10:25:52.649Z,17.70
2023-05-04T10:28:22.850Z,17.40
2023-05-04T10:30:58.744Z,17.20
2023-05-04T10:33:26.970Z,17.70
2023-05-04T10:35:54.973Z,18.10
2023-05-04T10:38:35.544Z,18.30
2023-05-04T10:41:17.293Z,18.10
2023-05-04T10:43:49.269Z,17.40
2023-05-04T10:46:23.177Z,17.70
2023-05-04T10:48:51.171Z,17.70
2023-05-04T10:51:35.644Z,17.80
2023-05-04T10:54:18.922Z,17.90
2023-05-04T10:56:45.983Z,17.80
2023-05-04T10:59:15.131Z,18.00
2023-05-04T11:01:45.107Z,17.80
2023-05-04T11:04:22.971Z,17.80
2023-05-04T11:07:00.846Z,18.00
2023-05-04T11:09:35.103Z,18.10
2023-05-04T11:12:02.868Z,18.10
2023-05-04T11:14:30.499Z,18.10
2023-05-04T11:17:27.370Z,18.30
2023-05-04T11:19:55.325Z,18.50
2023-05-04T11:22:22.714Z,18.40
2023-05-04T11:24:49.882Z,18.40
2023-05-04T11:27:29.558Z,18.30
2023-05-04T11:30:06.393Z,18.30
2023-05-04T11:32:38.394Z,18.50
2023-05-04T11:35:08.923Z,18.50
2023-05-04T11:37:40.805Z,18.40
2023-05-04T11:40:16.647Z,18.30
2023-05-04T11:42:44.340Z,18.60
2023-05-04T11:45:15.443Z,18.70
2023-05-04T11:47:43.526Z,18.50
2023-05-04T11:50:12.324Z,18.40
2023-05-04T11:52:41.873Z,18.50
2023-05-04T11:55:11.099Z,18.80
2023-05-04T11:57:38.899Z,19.20
2023-05-04T12:00:08.477Z,19.20
2023-05-04T12:02:36.076Z,19.30
2023-05-04T12:05:03.634Z,19.10
2023-05-04T12:07:31.039Z,19.00
2023-05-04T12:09:58.233Z,19.00
2023-05-04T12:12:35.897Z,18.90
2023-05-04T12:15:03.064Z,18.90
2023-05-04T12:17:41.558Z,19.00
2023-05-04T12:20:09.029Z,18.90
2023-05-04T12:22:36.510Z,19.10
2023-05-04T12:25:03.808Z,19.40
2023-05-04T12:27:31.163Z,19.60
2023-05-04T12:29:58.361Z,19.80
2023-05-04T12:32:25.504Z,20.00
2023-05-04T12:34:52.610Z,19.70
2023-05-04T12:37:19.824Z,19.10
2023-05-04T12:39:46.937Z,19.00
2023-05-04T12:42:14.228Z,19.00
2023-05-04T12:44:41.418Z,19.00
2023-05-04T12:47:08.445Z,19.10
2023-05-04T12:49:35.555Z,19.30
2023-05-04T12:52:03.377Z,19.10
2023-05-04T12:54:30.444Z,19.20
2023-05-04T12:56:58.557Z,19.60
2023-05-04T12:59:26.657Z,19.70
2023-05-04T13:01:53.826Z,19.70
2023-05-04T13:04:20.902Z,19.70
2023-05-04T13:06:48.799Z,19.90
2023-05-04T13:09:15.840Z,20.10
2023-05-04T13:11:43.364Z,20.10
2023-05-04T13:14:10.578Z,20.00
2023-05-04T13:16:37.791Z,20.00
2023-05-04T13:19:05.148Z,20.10
2023-05-04T13:21:32.317Z,19.90
2023-05-04T13:24:00.605Z,19.60
2023-05-04T13:26:27.779Z,19.40
2023-05-04T13:28:54.863Z,19.50
2023-05-04T13:31:21.988Z,19.50
2023-05-04T13:33:50.717Z,19.60
2023-05-04T13:36:17.925Z,19.30
2023-05-04T13:38:45.077Z,19.60
2023-05-04T13:41:12.350Z,19.40
2023-05-04T13:43:39.575Z,19.70
2023-05-04T13:46:06.711Z,20.10
2023-05-04T13:48:34.233Z,20.30
2023-05-04T13:51:04.268Z,20.30
2023-05-04T13:53:31.319Z,20.00
2023-05-04T13:55:58.571Z,20.20
2023-05-04T13:58:25.790Z,19.90
2023-05-04T14:00:56.469Z,19.80
2023-05-04T14:03:23.653Z,20.00
2023-05-04T14:05:51.968Z,20.10
2023-05-04T14:08:19.037Z,20.20
2023-05-04T14:10:46.193Z,20.10
2023-05-04T14:13:13.417Z,20.00
2023-05-04T14:15:40.795Z,20.10
2023-05-04T14:18:07.968Z,19.90
2023-05-04T14:20:35.097Z,20.00
2023-05-04T14:23:02.318Z,20.30
2023-05-04T14:25:29.505Z,20.30
2023-05-04T14:27:56.647Z,20.50
2023-05-04T14:30:23.893Z,20.30
2023-05-04T14:32:55.774Z,20.20
2023-05-04T14:35:23.011Z,20.50
2023-05-04T14:37:50.100Z,20.10
2023-05-04T14:40:17.290Z,20.20
2023-05-04T14:42:44.403Z,20.30
2023-05-04T14:45:12.146Z,20.20
2023-05-04T14:47:39.415Z,20.10
2023-05-04T14:50:07.387Z,20.10
2023-05-04T14:52:35.011Z,20.30
2023-05-04T14:55:03.063Z,20.00
2023-05-04T14:57:30.200Z,20.20
2023-05-04T14:59:57.334Z,20.10
2023-05-04T15:02:24.451Z,20.10
2023-05-04T15:04:51.666Z,20.30
2023-05-04T15:07:21.038Z,20.50
2023-05-04T15:09:48.232Z,20.50
2023-05-04T15:12:15.322Z,20.70
2023-05-04T15:14:42.457Z,20.60
2023-05-04T15:17:09.785Z,20.50
2023-05-04T15:19:38.295Z,20.70
2023-05-04T15:22:06.271Z,20.90
2023-05-04T15:24:33.590Z,20.70
2023-05-04T15:27:02.236Z,20.70
2023-05-04T15:29:29.656Z,20.90
2023-05-04T15:31:57.006Z,21.00
2023-05-04T15:34:24.437Z,20.70
2023-05-04T15:36:52.337Z,20.30
2023-05-04T15:39:19.555Z,20.30
2023-05-04T15:41:46.695Z,20.30
2023-05-04T15:44:13.871Z,20.50
2023-05-04T15:46:41.231Z,20.50
2023-05-04T15:49:08.599Z,20.20
2023-05-04T15:51:35.770Z,20.20
2023-05-04T15:54:04.369Z,20.20
2023-05-04T15:56:31.521Z,20.40
2023-05-04T15:58:58.564Z,20.40
2023-05-04T16:01:25.826Z,20.50
2023-05-04T16:03:55.859Z,20.30
2023-05-04T16:06:23.959Z,20.20
2023-05-04T16:08:51.456Z,20.30
2023-05-04T16:11:18.654Z,20.20
2023-05-04T16:13:46.862Z,20.30
2023-05-04T16:16:14.074Z,20.50
2023-05-04T16:18:41.312Z,20.50
2023-05-04T16:21:09.082Z,20.20
2023-05-04T16:23:36.644Z,20.10
2023-05-04T16:26:03.907Z,20.40
2023-05-04T16:28:31.054Z,21.30
2023-05-04T16:30:58.209Z,21.90
2023-05-04T16:33:26.976Z,22.00
2023-05-04T16:35:54.375Z,22.60
2023-05-04T16:38:21.468Z,22.70
2023-05-04T16:40:48.681Z,22.80
2023-05-04T16:43:16.047Z,22.90
2023-05-04T16:45:43.213Z,23.00
2023-05-04T16:48:10.841Z,23.00
2023-05-04T16:50:38.820Z,22.40
2023-05-04T16:53:05.969Z,21.80
2023-05-04T16:55:33.059Z,21.80
2023-05-04T16:58:00.333Z,21.80
2023-05-04T17:00:28.235Z,21.90
2023-05-04T17:02:55.505Z,22.60
2023-05-04T17:05:23.028Z,22.50
2023-05-04T17:07:52.358Z,22.40
2023-05-04T17:10:19.983Z,22.70
2023-05-04T17:12:47.260Z,22.40
2023-05-04T17:15:14.385Z,22.00
2023-05-04T17:17:41.691Z,22.10
2023-05-04T17:20:14.782Z,21.90
2023-05-04T17:22:43.586Z,21.70
2023-05-04T17:25:13.243Z,21.10
2023-05-04T17:27:40.478Z,21.10
2023-05-04T17:30:08.358Z,20.90
2023-05-04T17:32:37.285Z,20.30
2023-05-04T17:35:15.934Z,19.70
2023-05-04T17:37:47.795Z,19.00
2023-05-04T17:40:14.954Z,18.50
2023-05-04T17:42:42.030Z,18.30
2023-05-04T17:45:09.388Z,17.90
2023-05-04T17:47:36.508Z,17.60
2023-05-04T17:50:04.748Z,17.40
2023-05-04T17:52:31.965Z,17.20
2023-05-04T17:54:59.119Z,16.90
2023-05-04T17:57:26.194Z,16.80
2023-05-04T17:59:53.456Z,16.60
2023-05-04T18:02:20.539Z,16.40
2023-05-04T18:04:47.695Z,16.20
2023-05-04T18:07:14.726Z,16.10
2023-05-04T18:09:42.091Z,16.00
2023-05-04T18:12:09.542Z,15.90
2023-05-04T18:14:36.826Z,15.80
2023-05-04T18:17:03.894Z,15.70
2023-05-04T18:19:34.476Z,15.60
2023-05-04T18:22:01.607Z,15.50
2023-05-04T18:24:29.149Z,15.40
2023-05-04T18:26:56.592Z,15.40
2023-05-04T18:29:23.797Z,15.30
2023-05-04T18:31:50.927Z,15.30
2023-05-04T18:34:18.181Z,15.30
2023-05-04T18:36:46.518Z,15.10
2023-05-04T18:39:15.479Z,15.10
2023-05-04T18:41:42.720Z,14.90
2023-05-04T18:44:10.392Z,14.90
2023-05-04T18:46:38.053Z,14.80
2023-05-04T18:49:05.309Z,14.70
2023-05-04T18:51:32.608Z,14.60
2023-05-04T18:54:00.294Z,14.40
2023-05-04T18:56:27.749Z,14.30
2023-05-04T18:58:55.174Z,14.30
2023-05-04T19:01:22.827Z,14.30
2023-05-04T19:03:50.470Z,14.20
2023-05-04T19:06:17.982Z,14.10
2023-05-04T19:08:45.624Z,14.00
2023-05-04T19:11:12.785Z,13.90
2023-05-04T19:13:40.110Z,13.90
2023-05-04T19:16:12.314Z,13.80
2023-05-04T19:18:39.781Z,13.70
2023-05-04T19:21:07.088Z,13.60
2023-05-04T19:23:34.492Z,13.50
2023-05-04T19:26:01.724Z,13.50
2023-05-04T19:28:28.864Z,13.60
2023-05-04T19:30:56.239Z,13.60
2023-05-04T19:33:30.345Z,13.60
2023-05-04T19:36:04.574Z,13.50
2023-05-04T19:38:31.767Z,13.50
2023-05-04T19:40:59.156Z,13.40
2023-05-04T19:43:26.242Z,13.50
2023-05-04T19:45:53.858Z,13.40
2023-05-04T19:48:21.702Z,13.30
2023-05-04T19:50:48.943Z,13.20
2023-05-04T19:53:17.009Z,13.10
2023-05-04T19:55:44.164Z,12.90
2023-05-04T19:58:11.228Z,12.90
2023-05-04T20:00:38.538Z,12.80
2023-05-04T20:03:05.910Z,12.80
2023-05-04T20:05:33.449Z,12.70
2023-05-04T20:08:04.186Z,12.60
2023-05-04T20:10:32.527Z,12.50
2023-05-04T20:12:59.737Z,12.50
2023-05-04T20:15:26.931Z,12.50
2023-05-04T20:17:54.122Z,12.50
2023-05-04T20:20:22.145Z,12.40
2023-05-04T20:22:52.484Z,12.30
2023-05-04T20:25:20.158Z,12.20
2023-05-04T20:27:48.849Z,12.10
2023-05-04T20:30:16.180Z,12.00
2023-05-04T20:32:44.288Z,12.00
2023-05-04T20:35:11.658Z,11.90
2023-05-04T20:37:38.904Z,11.90
2023-05-04T20:40:07.082Z,11.90
2023-05-04T20:42:34.593Z,11.90
2023-05-04T20:45:01.827Z,11.90
2023-05-04T20:47:29.165Z,11.90
2023-05-04T20:49:57.089Z,11.90
2023-05-04T20:52:25.195Z,12.00
2023-05-04T20:54:52.395Z,12.00
2023-05-04T20:57:19.554Z,12.00
2023-05-04T20:59:46.703Z,11.90
2023-05-04T21:02:13.821Z,11.90
2023-05-04T21:04:42.209Z,12.00
2023-05-04T21:07:09.482Z,11.90
2023-05-04T21:09:36.674Z,12.00
2023-05-04T21:12:04.001Z,11.90
2023-05-04T21:14:31.081Z,12.00
2023-05-04T21:16:58.225Z,11.90
2023-05-04T21:19:25.492Z,11.80
2023-05-04T21:21:53.190Z,11.70
2023-05-04T21:24:20.926Z,11.70
2023-05-04T21:26:48.714Z,11.70
2023-05-04T21:29:16.075Z,11.60
2023-05-04T21:31:43.353Z,11.60
2023-05-04T21:34:11.114Z,11.50
2023-05-04T21:36:39.226Z,11.40
2023-05-04T21:39:06.724Z,11.40
2023-05-04T21:41:33.907Z,11.30
2023-05-04T21:44:01.105Z,11.20
2023-05-04T21:46:28.278Z,11.10
2023-05-04T21:48:55.420Z,11.20
2023-05-04T21:51:22.613Z,11.00
2023-05-04T21:53:49.778Z,11.10
2023-05-04T21:56:17.479Z,11.00
2023-05-04T21:58:44.792Z,11.10
2023-05-04T22:01:17.259Z,11.10
2023-05-04T22:03:44.917Z,11.00
2023-05-04T22:06:12.694Z,11.00
2023-05-04T22:08:39.905Z,10.90
2023-05-04T22:11:07.067Z,10.90
2023-05-04T22:13:34.154Z,10.80
2023-05-04T22:16:01.392Z,10.70
2023-05-04T22:18:28.513Z,10.60
2023-05-04T22:20:55.699Z,10.40
2023-05-04T22:23:22.930Z,10.30
2023-05-04T22:25:50.011Z,10.20
2023-05-04T22:28:17.139Z,10.10
2023-05-04T22:30:44.247Z,9.90
2023-05-04T22:33:11.349Z,9.80
2023-05-04T22:35:38.495Z,9.80
2023-05-04T22:38:05.631Z,9.80
2023-05-04T22:40:32.729Z,9.70
2023-05-04T22:42:59.860Z,9.60
2023-05-04T22:45:26.991Z,9.50
2023-05-04T22:47:54.122Z,9.50
2023-05-04T22:50:21.329Z,9.40
2023-05-04T22:52:48.583Z,9.20
2023-05-04T22:55:15.728Z,9.10
2023-05-04T22:57:42.757Z,9.00
2023-05-04T23:00:10.729Z,8.90
2023-05-04T23:02:38.201Z,8.80
2023-05-04T23:05:06.053Z,8.70
2023-05-04T23:07:33.217Z,8.80
2023-05-04T23:10:00.485Z,8.70
2023-05-04T23:12:28.424Z,8.70
2023-05-04T23:14:55.558Z,8.60
2023-05-04T23:17:22.765Z,8.50
2023-05-04T23:19:50.263Z,8.50
2023-05-04T23:22:17.399Z,8.40
2023-05-04T23:24:44.594Z,8.40
2023-05-04T23:27:11.705Z,8.30
2023-05-04T23:29:39.067Z,8.30
2023-05-04T23:32:06.659Z,8.20
2023-05-04T23:34:33.912Z,8.10
2023-05-04T23:37:01.269Z,8.10
2023-05-04T23:39:28.391Z,8.00
2023-05-04T23:41:55.504Z,8.00
2023-05-04T23:44:22.858Z,8.00
2023-05-04T23:46:50.038Z,8.00
2023-05-04T23:49:17.260Z,8.00
2023-05-04T23:51:44.618Z,7.90
2023-05-04T23:54:11.704Z,7.90
2023-05-04T23:56:38.868Z,7.90
2023-05-04T23:59:06.004Z,7.80
